createdAt,value
2022-10-28T00:03:22.887Z,4.45
2022-10-28T00:08:28.803Z,4.35
2022-10-28T00:13:32.641Z,4.57
2022-10-28T00:18:36.186Z,4.68
2022-10-28T00:23:41.547Z,4.35
2022-10-28T00:28:46.257Z,3.88
2022-10-28T00:33:50.256Z,4.32
2022-10-28T00:38:56.454Z,4.55
2022-10-28T00:44:01.969Z,4.10
2022-10-28T00:49:08.366Z,4.40
2022-10-28T00:54:14.032Z,3.78
2022-10-28T00:59:21.184Z,3.20
2022-10-28T01:04:24.690Z,3.75
2022-10-28T01:09:29.295Z,3.75
2022-10-28T01:14:43.673Z,4.15
2022-10-28T01:20:22.420Z,3.63
2022-10-28T01:26:07.569Z,3.38
2022-10-28T01:31:37.452Z,3.20
2022-10-28T01:36:48.747Z,3.00
2022-10-28T01:41:57.549Z,3.47
2022-10-28T01:47:09.749Z,3.25
2022-10-28T01:52:15.459Z,2.95
2022-10-28T01:57:20.470Z,2.95
2022-10-28T02:02:25.866Z,3.67
2022-10-28T02:07:29.175Z,3.15
2022-10-28T02:12:34.966Z,3.47
2022-10-28T02:17:52.908Z,3.83
2022-10-28T02:23:05.494Z,3.40
2022-10-28T02:33:25.228Z,3.70
2022-10-28T02:38:34.169Z,4.05
2022-10-28T02:43:39.276Z,3.58
2022-10-28T02:48:48.074Z,4.00
2022-10-28T02:53:58.179Z,3.95
2022-10-28T02:59:01.755Z,3.05
2022-10-28T03:04:07.240Z,4.07
2022-10-28T03:09:10.466Z,3.70
2022-10-28T03:14:15.376Z,4.18
2022-10-28T03:19:20.259Z,3.85
2022-10-28T03:24:23.779Z,4.13
2022-10-28T03:29:28.186Z,3.45
2022-10-28T03:34:32.831Z,3.60
2022-10-28T03:39:36.111Z,3.75
2022-10-28T03:44:39.663Z,3.53
2022-10-28T03:49:44.245Z,3.85
2022-10-28T03:54:47.451Z,3.75
2022-10-28T03:59:51.007Z,3.90
2022-10-28T04:04:55.687Z,3.83
2022-10-28T04:09:58.935Z,3.70
2022-10-28T04:15:02.481Z,4.05
2022-10-28T04:20:08.371Z,3.70
2022-10-28T04:25:11.910Z,3.97
2022-10-28T04:30:15.528Z,3.53
2022-10-28T04:35:20.918Z,4.03
2022-10-28T04:40:24.266Z,3.92
2022-10-28T04:45:28.002Z,3.63
2022-10-28T04:50:32.687Z,4.07
2022-10-28T04:55:36.398Z,3.45
2022-10-28T05:00:40.003Z,3.65
2022-10-28T05:05:44.628Z,3.65
2022-10-28T05:10:51.124Z,2.90
2022-10-28T05:15:54.360Z,3.42
2022-10-28T05:20:59.002Z,2.65
2022-10-28T05:26:02.360Z,3.20
2022-10-28T05:31:05.614Z,4.22
2022-10-28T05:36:10.285Z,2.95
2022-10-28T05:41:13.748Z,2.75
2022-10-28T05:46:17.253Z,2.65
2022-10-28T05:51:21.866Z,2.63
2022-10-28T05:56:25.224Z,2.83
2022-10-28T06:01:28.533Z,2.90
2022-10-28T06:06:33.785Z,2.75
2022-10-28T06:11:35.709Z,3.00
2022-10-28T06:16:39.035Z,2.45
2022-10-28T06:21:43.705Z,2.67
2022-10-28T06:26:47.776Z,2.92
2022-10-28T06:31:51.042Z,3.05
2022-10-28T06:36:55.892Z,1.65
2022-10-28T06:41:59.235Z,2.00
2022-10-28T06:47:03.983Z,1.85
2022-10-28T06:52:08.677Z,2.00
2022-10-28T06:57:11.969Z,2.38
2022-10-28T07:02:16.022Z,2.30
2022-10-28T07:07:21.129Z,2.13
2022-10-28T07:12:24.370Z,2.30
2022-10-28T07:17:28.028Z,2.88
2022-10-28T07:22:32.924Z,3.35
2022-10-28T07:27:36.249Z,3.20
2022-10-28T07:32:39.613Z,3.50
2022-10-28T07:37:44.228Z,3.00
2022-10-28T07:42:47.689Z,3.28
2022-10-28T07:47:51.002Z,3.17
2022-10-28T07:52:56.218Z,3.15
2022-10-28T07:58:00.159Z,4.38
2022-10-28T08:03:04.464Z,4.03
2022-10-28T08:08:09.467Z,3.35
2022-10-28T08:13:12.751Z,3.67
2022-10-28T08:18:16.115Z,3.03
2022-10-28T08:23:21.021Z,3.05
2022-10-28T08:28:24.575Z,3.28
2022-10-28T08:33:27.924Z,1.60
2022-10-28T08:38:32.714Z,2.15
2022-10-28T08:43:57.516Z,1.80
2022-10-28T08:49:03.706Z,2.10
2022-10-28T08:54:18.485Z,2.05
2022-10-28T08:59:26.664Z,2.05
2022-10-28T09:04:39.707Z,3.45
2022-10-28T09:09:44.419Z,2.58
2022-10-28T09:15:24.510Z,3.05
2022-10-28T09:20:40.385Z,3.50
2022-10-28T09:25:53.005Z,2.92
2022-10-28T09:31:06.615Z,3.00
2022-10-28T09:36:15.685Z,2.67
2022-10-28T09:41:25.306Z,2.88
2022-10-28T09:46:34.667Z,3.30
2022-10-28T09:51:48.104Z,3.15
2022-10-28T09:56:53.231Z,3.38
2022-10-28T10:01:56.758Z,3.05
2022-10-28T10:07:06.740Z,2.80
2022-10-28T10:12:13.766Z,2.95
2022-10-28T10:17:21.294Z,2.97
2022-10-28T10:22:31.894Z,2.85
2022-10-28T10:27:36.740Z,3.10
2022-10-28T10:32:40.195Z,3.20
2022-10-28T10:37:46.575Z,2.97
2022-10-28T10:43:09.660Z,3.05
2022-10-28T10:48:18.405Z,3.20
2022-10-28T10:53:25.095Z,2.25
2022-10-28T10:58:31.850Z,3.70
2022-10-28T11:03:38.455Z,2.42
2022-10-28T11:08:44.205Z,2.45
2022-10-28T11:13:50.546Z,2.85
2022-10-28T11:18:55.171Z,2.42
2022-10-28T11:24:13.229Z,2.65
2022-10-28T11:29:19.514Z,2.53
2022-10-28T11:34:47.782Z,2.85
2022-10-28T11:40:01.990Z,2.47
2022-10-28T11:45:12.410Z,2.05
2022-10-28T11:50:30.636Z,2.92
2022-10-28T11:55:39.458Z,2.40
2022-10-28T12:00:55.578Z,2.22
2022-10-28T12:06:09.211Z,2.38
2022-10-28T12:11:26.274Z,2.15
2022-10-28T12:16:38.387Z,4.28
2022-10-28T12:21:45.967Z,3.67
2022-10-28T12:26:51.485Z,3.58
2022-10-28T12:32:01.658Z,3.50
2022-10-28T12:37:10.043Z,3.58
2022-10-28T12:42:20.562Z,3.80
2022-10-28T12:47:32.472Z,3.53
2022-10-28T12:52:44.745Z,3.80
2022-10-28T12:57:53.724Z,3.63
2022-10-28T13:03:03.615Z,2.95
2022-10-28T13:08:31.509Z,3.78
2022-10-28T13:13:46.142Z,4.25
2022-10-28T13:19:26.165Z,4.18
2022-10-28T13:24:38.382Z,3.60
2022-10-28T13:29:45.285Z,3.97
2022-10-28T13:34:51.181Z,3.72
2022-10-28T13:39:54.874Z,3.78
2022-10-28T13:45:00.996Z,3.28
2022-10-28T13:50:30.383Z,3.60
2022-10-28T13:55:45.358Z,3.47
2022-10-28T14:00:52.098Z,1.90
2022-10-28T14:05:59.689Z,2.83
2022-10-28T14:11:08.697Z,3.03
2022-10-28T14:16:22.521Z,4.65
2022-10-28T14:21:39.869Z,3.75
2022-10-28T14:27:27.873Z,4.28
2022-10-28T14:32:43.980Z,3.80
2022-10-28T14:38:29.442Z,4.18
2022-10-28T14:43:52.972Z,3.88
2022-10-28T14:48:58.204Z,3.78
2022-10-28T14:54:03.602Z,3.63
2022-10-28T14:59:25.376Z,3.88
2022-10-28T15:04:29.942Z,3.15
2022-10-28T15:09:36.247Z,3.47
2022-10-28T15:14:41.812Z,3.25
2022-10-28T15:19:46.749Z,3.30
2022-10-28T15:24:59.599Z,3.83
2022-10-28T15:30:03.312Z,2.92
2022-10-28T15:35:39.521Z,4.10
2022-10-28T15:40:46.604Z,3.42
2022-10-28T15:45:52.766Z,3.63
2022-10-28T15:51:17.145Z,3.95
2022-10-28T15:56:23.913Z,3.78
2022-10-28T16:01:39.176Z,3.67
2022-10-28T16:06:43.096Z,3.22
2022-10-28T16:11:50.434Z,4.10
2022-10-28T16:16:53.880Z,4.22
2022-10-28T16:21:57.477Z,4.00
2022-10-28T16:27:19.271Z,3.60
2022-10-28T16:32:27.184Z,3.83
2022-10-28T16:37:32.926Z,3.40
2022-10-28T16:42:38.396Z,3.63
2022-10-28T16:47:42.562Z,4.03
2022-10-28T16:52:46.095Z,4.32
2022-10-28T16:57:52.028Z,3.95
2022-10-28T17:02:55.870Z,3.58
2022-10-28T17:08:01.692Z,3.78
2022-10-28T17:13:11.036Z,3.80
2022-10-28T17:18:16.477Z,4.07
2022-10-28T17:23:20.780Z,3.88
2022-10-28T17:28:26.928Z,4.60
2022-10-28T17:33:30.851Z,3.90
2022-10-28T17:38:35.070Z,3.97
2022-10-28T17:43:40.428Z,3.03
2022-10-28T17:48:44.545Z,3.25
2022-10-28T17:53:49.280Z,5.10
2022-10-28T17:58:56.438Z,4.38
2022-10-28T18:04:01.025Z,4.53
2022-10-28T18:09:04.681Z,4.85
2022-10-28T18:14:10.549Z,4.68
2022-10-28T18:19:16.228Z,4.82
2022-10-28T18:24:23.424Z,3.92
2022-10-28T18:29:32.604Z,4.68
2022-10-28T18:34:36.739Z,5.45
2022-10-28T18:39:41.541Z,7.45
2022-10-28T18:44:47.679Z,6.38
2022-10-28T18:49:52.571Z,5.75
2022-10-28T18:54:57.001Z,5.18
2022-10-28T19:00:19.203Z,4.70
2022-10-28T19:05:23.683Z,4.88
2022-10-28T19:10:27.688Z,4.32
2022-10-28T19:15:33.579Z,4.65
2022-10-28T19:20:41.118Z,4.60
2022-10-28T19:25:49.383Z,4.18
2022-10-28T19:31:02.104Z,4.05
2022-10-28T19:36:08.463Z,4.10
2022-10-28T19:41:14.607Z,4.35
2022-10-28T19:46:21.832Z,4.47
2022-10-28T19:51:27.542Z,5.05
2022-10-28T19:56:36.671Z,5.53
2022-10-28T20:01:46.482Z,4.95
2022-10-28T20:06:50.344Z,5.10
2022-10-28T20:11:54.046Z,5.25
2022-10-28T20:17:06.415Z,4.97
2022-10-28T20:22:10.536Z,5.03
2022-10-28T20:27:14.505Z,5.35
2022-10-28T20:32:21.532Z,5.47
2022-10-28T20:37:26.228Z,2.70
2022-10-28T20:42:30.163Z,5.22
2022-10-28T20:47:34.850Z,4.68
2022-10-28T20:52:38.375Z,5.40
2022-10-28T20:57:42.339Z,4.13
2022-10-28T21:02:47.393Z,3.95
2022-10-28T21:07:50.764Z,3.80
2022-10-28T21:12:54.078Z,3.53
2022-10-28T21:17:58.914Z,3.38
2022-10-28T21:23:02.268Z,3.70
2022-10-28T21:28:05.962Z,3.50
2022-10-28T21:33:12.177Z,3.58
2022-10-28T21:38:18.915Z,3.90
2022-10-28T21:43:22.341Z,3.05
2022-10-28T21:48:28.130Z,3.33
2022-10-28T21:53:33.776Z,3.75
2022-10-28T21:58:37.418Z,3.30
2022-10-28T22:03:42.484Z,3.10
2022-10-28T22:08:47.888Z,3.20
2022-10-28T22:13:57.806Z,3.00
2022-10-28T22:19:05.603Z,3.58
2022-10-28T22:24:09.550Z,3.00
2022-10-28T22:29:13.087Z,3.58
2022-10-28T22:34:17.807Z,3.03
2022-10-28T22:39:21.179Z,3.42
2022-10-28T22:44:24.769Z,3.13
2022-10-28T22:49:29.406Z,3.33
2022-10-28T22:54:32.731Z,3.10
2022-10-28T22:59:36.031Z,3.45
2022-10-28T23:04:40.959Z,3.63
2022-10-28T23:09:44.199Z,3.45
2022-10-28T23:14:47.497Z,2.88
2022-10-28T23:19:52.350Z,3.30
2022-10-28T23:24:55.642Z,3.15
2022-10-28T23:29:58.881Z,2.90
2022-10-28T23:35:03.632Z,3.20
2022-10-28T23:45:18.422Z,2.88
2022-10-28T23:50:23.089Z,2.60
2022-10-28T23:55:26.733Z,2.92
